createdAt,value
2019-04-14T00:01:10.836Z,99.90
2019-04-14T00:03:58.652Z,99.90
2019-04-14T00:06:28.689Z,99.90
2019-04-14T00:08:58.663Z,99.90
2019-04-14T00:11:28.067Z,99.90
2019-04-14T00:13:57.394Z,99.90
2019-04-14T00:16:27.029Z,99.90
2019-04-14T00:18:56.341Z,99.90
2019-04-14T00:21:26.096Z,99.90
2019-04-14T00:23:56.553Z,99.90
2019-04-14T00:26:29.308Z,99.90
2019-04-14T00:29:00.053Z,99.90
2019-04-14T00:31:30.716Z,99.90
2019-04-14T00:34:07.243Z,99.90
2019-04-14T00:36:48.790Z,99.90
2019-04-14T00:39:22.641Z,99.90
2019-04-14T00:42:23.447Z,99.90
2019-04-14T00:45:02.872Z,99.90
2019-04-14T00:47:48.436Z,99.90
2019-04-14T00:50:08.001Z,99.90
2019-04-14T00:52:37.314Z,99.90
2019-04-14T00:55:07.561Z,99.90
2019-04-14T00:57:37.650Z,99.90
2019-04-14T01:00:08.211Z,99.90
2019-04-14T01:02:38.528Z,99.90
2019-04-14T01:05:08.927Z,99.90
2019-04-14T01:07:39.155Z,99.90
2019-04-14T01:10:08.666Z,99.90
2019-04-14T01:12:38.737Z,99.90
2019-04-14T01:15:09.218Z,99.90
2019-04-14T01:17:39.519Z,99.90
2019-04-14T01:20:10.127Z,99.90
2019-04-14T01:22:40.184Z,99.90
2019-04-14T01:25:10.653Z,99.90
2019-04-14T01:27:40.637Z,99.90
2019-04-14T01:30:11.246Z,99.90
2019-04-14T01:32:41.535Z,99.90
2019-04-14T01:35:11.729Z,99.90
2019-04-14T01:37:41.923Z,99.90
2019-04-14T01:40:12.091Z,99.90
2019-04-14T01:42:42.084Z,99.90
2019-04-14T01:45:14.260Z,99.90
2019-04-14T01:47:44.528Z,99.90
2019-04-14T01:50:14.857Z,99.90
2019-04-14T01:53:03.537Z,99.90
2019-04-14T01:56:05.569Z,99.90
2019-04-14T01:58:44.667Z,99.90
2019-04-14T02:01:33.127Z,99.90
2019-04-14T02:04:02.957Z,99.90
2019-04-14T02:06:33.341Z,99.90
2019-04-14T02:09:03.727Z,99.90
2019-04-14T02:11:33.423Z,99.90
2019-04-14T02:14:03.678Z,99.90
2019-04-14T02:16:40.326Z,99.90
2019-04-14T02:19:04.638Z,99.90
2019-04-14T02:21:34.555Z,99.90
2019-04-14T02:24:04.918Z,99.90
2019-04-14T02:26:35.125Z,99.90
2019-04-14T02:29:05.660Z,99.90
2019-04-14T02:32:01.478Z,99.90
2019-04-14T02:34:39.174Z,99.90
2019-04-14T02:37:04.414Z,99.90
2019-04-14T02:39:38.664Z,99.90
2019-04-14T02:44:51.853Z,99.90
2019-04-14T02:47:47.281Z,99.90
2019-04-14T02:50:05.403Z,99.90
2019-04-14T02:52:35.368Z,99.90
2019-04-14T02:55:02.965Z,99.90
2019-04-14T03:00:11.338Z,99.90
2019-04-14T03:02:44.154Z,99.90
2019-04-14T03:05:13.329Z,99.90
2019-04-14T03:07:54.240Z,99.90
2019-04-14T03:10:25.939Z,99.90
2019-04-14T03:13:01.774Z,99.90
2019-04-14T03:15:26.731Z,99.90
2019-04-14T03:21:04.349Z,99.90
2019-04-14T03:24:07.165Z,99.90
2019-04-14T03:26:44.709Z,99.90
2019-04-14T03:29:21.627Z,99.90
2019-04-14T03:34:34.398Z,99.90
2019-04-14T03:37:33.626Z,99.90
2019-04-14T03:39:23.501Z,99.90
2019-04-14T03:41:53.086Z,99.90
2019-04-14T03:44:28.110Z,99.90
2019-04-14T03:47:03.450Z,99.90
2019-04-14T03:49:31.797Z,99.90
2019-04-14T03:51:57.801Z,99.90
2019-04-14T03:54:20.173Z,99.90
2019-04-14T03:57:03.972Z,99.90
2019-04-14T03:59:34.593Z,99.90
2019-04-14T04:02:05.292Z,99.90
2019-04-14T04:04:35.772Z,99.90
2019-04-14T04:07:06.219Z,99.90
2019-04-14T04:09:39.356Z,99.90
2019-04-14T04:12:09.596Z,99.90
2019-04-14T04:14:39.839Z,99.90
2019-04-14T04:17:28.220Z,99.90
2019-04-14T04:20:23.723Z,99.90
2019-04-14T04:23:09.467Z,99.90
2019-04-14T04:25:49.382Z,99.90
2019-04-14T04:28:53.946Z,99.90
2019-04-14T04:31:48.371Z,99.90
2019-04-14T04:34:36.668Z,99.90
2019-04-14T04:37:25.678Z,99.90
2019-04-14T04:39:56.044Z,99.90
2019-04-14T04:42:26.517Z,99.90
2019-04-14T04:44:57.396Z,99.90
2019-04-14T04:47:27.373Z,99.90
2019-04-14T04:49:57.581Z,99.90
2019-04-14T04:52:28.053Z,99.90
2019-04-14T04:54:58.077Z,99.90
2019-04-14T04:57:28.519Z,99.90
2019-04-14T04:59:58.215Z,99.90
2019-04-14T05:02:28.687Z,99.90
2019-04-14T05:04:59.080Z,99.90
2019-04-14T05:07:29.473Z,99.90
2019-04-14T05:10:32.917Z,99.90
2019-04-14T05:13:18.746Z,99.90
2019-04-14T05:15:53.862Z,99.90
2019-04-14T05:18:26.892Z,99.90
2019-04-14T05:20:57.338Z,99.90
2019-04-14T05:23:27.789Z,99.90
2019-04-14T05:25:58.138Z,99.90
2019-04-14T05:28:28.730Z,99.90
2019-04-14T05:30:58.934Z,99.90
2019-04-14T05:33:29.343Z,99.90
2019-04-14T05:35:59.886Z,99.90
2019-04-14T05:38:32.117Z,99.90
2019-04-14T05:41:00.448Z,99.90
2019-04-14T05:43:38.589Z,99.90
2019-04-14T05:46:01.323Z,99.90
2019-04-14T05:48:31.499Z,99.90
2019-04-14T05:51:01.930Z,99.90
2019-04-14T05:53:32.575Z,99.90
2019-04-14T05:56:01.910Z,99.90
2019-04-14T05:58:31.782Z,99.90
2019-04-14T06:01:00.989Z,99.90
2019-04-14T06:03:30.222Z,99.90
2019-04-14T06:05:59.404Z,99.90
2019-04-14T06:08:28.652Z,99.90
2019-04-14T06:10:57.809Z,99.90
2019-04-14T06:13:27.358Z,99.90
2019-04-14T06:15:56.888Z,99.90
2019-04-14T06:18:26.374Z,99.90
2019-04-14T06:20:55.812Z,99.90
2019-04-14T06:23:25.353Z,99.90
2019-04-14T06:25:54.913Z,99.90
2019-04-14T06:28:24.420Z,99.90
2019-04-14T06:31:18.802Z,99.90
2019-04-14T06:34:01.468Z,99.90
2019-04-14T06:36:51.913Z,99.90
2019-04-14T06:39:29.850Z,99.90
2019-04-14T06:41:59.021Z,99.90
2019-04-14T06:44:28.280Z,99.90
2019-04-14T06:46:57.461Z,99.90
2019-04-14T06:49:26.684Z,99.90
2019-04-14T06:51:58.496Z,99.90
2019-04-14T06:54:27.656Z,99.90
2019-04-14T06:56:56.816Z,99.90
2019-04-14T06:59:26.159Z,99.90
2019-04-14T07:01:55.759Z,99.90
2019-04-14T07:04:24.909Z,99.90
2019-04-14T07:06:54.098Z,99.90
2019-04-14T07:09:23.408Z,99.90
2019-04-14T07:11:52.720Z,99.90
2019-04-14T07:14:22.355Z,99.90
2019-04-14T07:16:51.635Z,99.90
2019-04-14T07:19:20.927Z,99.90
2019-04-14T07:21:50.095Z,99.90
2019-04-14T07:24:19.331Z,99.90
2019-04-14T07:26:48.529Z,99.90
2019-04-14T07:29:17.700Z,99.90
2019-04-14T07:32:17.961Z,99.90
2019-04-14T07:35:01.290Z,99.90
2019-04-14T07:37:56.189Z,99.90
2019-04-14T07:40:43.479Z,99.90
2019-04-14T07:43:34.433Z,99.90
2019-04-14T07:46:11.293Z,99.90
2019-04-14T07:49:02.535Z,99.90
2019-04-14T07:51:48.994Z,99.90
2019-04-14T07:54:36.325Z,99.90
2019-04-14T07:57:36.813Z,99.90
2019-04-14T08:00:10.678Z,99.90
2019-04-14T08:03:00.346Z,99.90
2019-04-14T08:05:32.627Z,99.90
2019-04-14T08:08:01.806Z,99.90
2019-04-14T08:10:31.531Z,99.90
2019-04-14T08:13:00.709Z,99.90
2019-04-14T08:15:29.979Z,99.90
2019-04-14T08:17:59.675Z,99.90
2019-04-14T08:20:28.832Z,99.90
2019-04-14T08:22:58.307Z,99.90
2019-04-14T08:25:27.549Z,99.90
2019-04-14T08:27:57.123Z,99.90
2019-04-14T08:30:26.343Z,99.90
2019-04-14T08:32:55.607Z,99.90
2019-04-14T08:35:24.776Z,99.90
2019-04-14T08:37:54.029Z,99.90
2019-04-14T08:40:23.213Z,99.90
2019-04-14T08:43:20.591Z,99.90
2019-04-14T08:46:00.714Z,99.90
2019-04-14T08:49:07.584Z,99.90
2019-04-14T08:52:07.811Z,99.90
2019-04-14T08:54:55.195Z,99.90
2019-04-14T08:57:40.533Z,99.90
2019-04-14T09:00:28.927Z,99.90
2019-04-14T09:03:16.207Z,99.90
2019-04-14T09:06:10.965Z,99.90
2019-04-14T09:08:49.726Z,99.90
2019-04-14T09:11:24.323Z,99.90
2019-04-14T09:13:53.803Z,99.90
2019-04-14T09:16:23.330Z,99.90
2019-04-14T09:18:53.805Z,99.90
2019-04-14T09:21:23.652Z,99.90
2019-04-14T09:23:52.959Z,99.90
2019-04-14T09:26:22.671Z,99.90
2019-04-14T09:28:51.839Z,99.90
2019-04-14T09:31:21.082Z,99.90
2019-04-14T09:33:50.273Z,99.90
2019-04-14T09:36:19.505Z,99.90
2019-04-14T09:38:48.669Z,99.20
2019-04-14T09:41:17.939Z,99.60
2019-04-14T09:43:47.729Z,99.90
2019-04-14T09:46:16.921Z,97.90
2019-04-14T09:48:46.151Z,96.70
2019-04-14T09:51:15.317Z,97.10
2019-04-14T09:53:44.915Z,97.80
2019-04-14T09:56:14.537Z,97.30
2019-04-14T09:58:43.764Z,96.70
2019-04-14T10:01:13.427Z,93.90
2019-04-14T10:03:42.697Z,92.60
2019-04-14T10:06:12.016Z,93.00
2019-04-14T10:08:41.250Z,93.30
2019-04-14T10:11:10.424Z,93.00
2019-04-14T10:13:39.977Z,93.60
2019-04-14T10:16:09.201Z,93.20
2019-04-14T10:18:38.443Z,92.70
2019-04-14T10:21:17.230Z,92.60
2019-04-14T10:23:39.621Z,93.10
2019-04-14T10:26:09.301Z,94.10
2019-04-14T10:28:38.479Z,94.50
2019-04-14T10:31:08.095Z,93.40
2019-04-14T10:33:37.262Z,92.80
2019-04-14T10:36:06.839Z,91.90
2019-04-14T10:38:36.031Z,92.80
2019-04-14T10:41:05.610Z,92.50
2019-04-14T10:43:35.419Z,93.60
2019-04-14T10:46:04.947Z,92.90
2019-04-14T10:48:34.223Z,90.50
2019-04-14T10:51:03.399Z,88.00
2019-04-14T10:53:32.565Z,82.80
2019-04-14T10:56:02.274Z,79.80
2019-04-14T10:58:31.587Z,79.20
2019-04-14T11:01:01.161Z,78.20
2019-04-14T11:03:30.762Z,79.40
2019-04-14T11:06:14.637Z,78.10
2019-04-14T11:08:43.809Z,73.00
2019-04-14T11:11:13.047Z,67.80
2019-04-14T11:13:42.222Z,65.90
2019-04-14T11:16:11.471Z,64.00
2019-04-14T11:18:40.832Z,62.70
2019-04-14T11:21:10.001Z,64.90
2019-04-14T11:23:40.188Z,66.80
2019-04-14T11:26:09.489Z,71.00
2019-04-14T11:28:39.575Z,67.60
2019-04-14T11:31:36.489Z,65.70
2019-04-14T11:34:11.400Z,66.00
2019-04-14T11:36:51.143Z,65.70
2019-04-14T11:39:20.963Z,70.00
2019-04-14T11:41:50.512Z,73.10
2019-04-14T11:44:27.342Z,75.90
2019-04-14T11:47:05.311Z,78.50
2019-04-14T11:49:34.554Z,80.50
2019-04-14T11:52:04.471Z,82.40
2019-04-14T11:54:33.737Z,83.30
2019-04-14T11:57:02.981Z,83.20
2019-04-14T11:59:52.164Z,84.40
2019-04-14T12:02:47.355Z,83.90
2019-04-14T12:05:24.737Z,82.80
2019-04-14T12:08:11.568Z,82.00
2019-04-14T12:10:40.880Z,83.80
2019-04-14T12:13:10.403Z,84.30
2019-04-14T12:15:39.910Z,87.00
2019-04-14T12:18:09.423Z,84.70
2019-04-14T12:20:39.104Z,87.50
2019-04-14T12:23:08.602Z,87.80
2019-04-14T12:25:37.799Z,88.10
2019-04-14T12:28:07.069Z,85.50
2019-04-14T12:30:36.285Z,85.50
2019-04-14T12:33:05.867Z,85.80
2019-04-14T12:35:35.124Z,86.50
2019-04-14T12:38:04.392Z,87.60
2019-04-14T12:40:33.695Z,86.90
2019-04-14T12:43:12.790Z,86.70
2019-04-14T12:46:19.479Z,87.70
2019-04-14T12:48:56.122Z,88.80
2019-04-14T12:51:47.099Z,89.20
2019-04-14T12:54:16.371Z,88.90
2019-04-14T12:56:45.533Z,88.60
2019-04-14T12:59:23.121Z,90.00
2019-04-14T13:02:00.975Z,90.40
2019-04-14T13:04:30.569Z,90.90
2019-04-14T13:07:00.075Z,91.30
2019-04-14T13:09:29.712Z,91.30
2019-04-14T13:11:58.933Z,91.00
2019-04-14T13:14:28.125Z,91.00
2019-04-14T13:16:57.305Z,90.90
2019-04-14T13:19:26.512Z,90.50
2019-04-14T13:21:55.709Z,90.60
2019-04-14T13:24:25.303Z,90.40
2019-04-14T13:26:54.821Z,88.70
2019-04-14T13:29:24.071Z,88.10
2019-04-14T13:31:53.323Z,87.60
2019-04-14T13:34:22.489Z,87.70
2019-04-14T13:36:52.265Z,88.30
2019-04-14T13:39:21.683Z,89.30
2019-04-14T13:41:50.932Z,90.60
2019-04-14T13:44:20.118Z,90.50
2019-04-14T13:46:49.766Z,91.60
2019-04-14T13:49:18.986Z,91.40
2019-04-14T13:51:48.331Z,91.80
2019-04-14T13:54:17.949Z,92.00
2019-04-14T13:56:47.151Z,92.10
2019-04-14T13:59:16.429Z,92.30
2019-04-14T14:01:50.593Z,92.60
2019-04-14T14:04:20.334Z,92.20
2019-04-14T14:06:49.958Z,92.40
2019-04-14T14:09:19.946Z,91.70
2019-04-14T14:12:07.084Z,91.80
2019-04-14T14:14:54.316Z,91.80
2019-04-14T14:17:42.758Z,91.00
2019-04-14T14:20:48.242Z,91.30
2019-04-14T14:23:41.878Z,91.40
2019-04-14T14:26:31.320Z,91.30
2019-04-14T14:29:00.603Z,90.80
2019-04-14T14:31:30.387Z,90.00
2019-04-14T14:34:00.108Z,89.90
2019-04-14T14:36:29.429Z,88.10
2019-04-14T14:38:58.728Z,87.00
2019-04-14T14:41:28.286Z,87.90
2019-04-14T14:43:57.565Z,87.70
2019-04-14T14:46:46.153Z,86.60
2019-04-14T14:49:26.790Z,86.90
2019-04-14T14:52:16.255Z,85.90
2019-04-14T14:54:45.516Z,85.80
2019-04-14T14:57:15.195Z,85.20
2019-04-14T14:59:44.476Z,83.20
2019-04-14T15:02:13.736Z,83.00
2019-04-14T15:04:42.988Z,80.70
2019-04-14T15:07:12.611Z,80.70
2019-04-14T15:09:44.053Z,80.80
2019-04-14T15:12:13.686Z,79.20
2019-04-14T15:14:42.996Z,79.30
2019-04-14T15:17:12.357Z,80.50
2019-04-14T15:19:41.626Z,79.90
2019-04-14T15:22:11.296Z,81.90
2019-04-14T15:24:41.211Z,82.50
2019-04-14T15:27:10.567Z,83.40
2019-04-14T15:29:39.846Z,82.50
2019-04-14T15:32:09.500Z,80.60
2019-04-14T15:34:39.110Z,81.10
2019-04-14T15:37:08.712Z,80.40
2019-04-14T15:39:38.284Z,82.10
2019-04-14T15:42:07.835Z,81.60
2019-04-14T15:44:37.174Z,82.30
2019-04-14T15:47:06.650Z,83.40
2019-04-14T15:49:35.931Z,83.10
2019-04-14T15:52:05.628Z,84.20
2019-04-14T15:54:34.915Z,84.90
2019-04-14T15:57:32.590Z,83.30
2019-04-14T16:00:19.959Z,83.90
2019-04-14T16:02:58.809Z,84.30
2019-04-14T16:05:47.299Z,84.40
2019-04-14T16:08:21.732Z,84.30
2019-04-14T16:10:58.923Z,84.50
2019-04-14T16:13:49.897Z,84.20
2019-04-14T16:16:36.688Z,85.50
2019-04-14T16:19:31.276Z,87.00
2019-04-14T16:22:00.543Z,87.50
2019-04-14T16:24:29.834Z,87.20
2019-04-14T16:27:21.138Z,88.10
2019-04-14T16:29:59.556Z,86.90
2019-04-14T16:32:51.303Z,85.90
2019-04-14T16:35:23.884Z,86.20
2019-04-14T16:37:53.156Z,83.70
2019-04-14T16:40:22.369Z,82.70
2019-04-14T16:42:51.630Z,82.20
2019-04-14T16:45:21.142Z,83.80
2019-04-14T16:47:50.338Z,85.70
2019-04-14T16:50:19.624Z,85.80
2019-04-14T16:52:56.704Z,86.20
2019-04-14T16:55:46.822Z,86.90
2019-04-14T16:58:46.928Z,88.20
2019-04-14T17:01:30.952Z,90.20
2019-04-14T17:04:00.123Z,90.40
2019-04-14T17:06:29.537Z,91.00
2019-04-14T17:08:58.717Z,91.40
2019-04-14T17:11:28.550Z,90.80
2019-04-14T17:14:20.453Z,91.10
2019-04-14T17:17:01.096Z,91.10
2019-04-14T17:19:51.050Z,91.40
2019-04-14T17:22:40.565Z,91.50
2019-04-14T17:25:27.317Z,91.90
2019-04-14T17:28:14.336Z,93.30
2019-04-14T17:31:02.633Z,93.90
2019-04-14T17:33:36.209Z,95.40
2019-04-14T17:36:30.450Z,96.60
2019-04-14T17:39:31.957Z,97.70
2019-04-14T17:42:23.773Z,97.80
2019-04-14T17:45:12.429Z,97.60
2019-04-14T17:47:54.795Z,98.30
2019-04-14T17:50:46.136Z,99.00
2019-04-14T17:53:43.585Z,98.10
2019-04-14T17:56:30.395Z,96.70
2019-04-14T17:59:19.008Z,97.60
2019-04-14T18:02:06.101Z,97.50
2019-04-14T18:04:44.669Z,97.20
2019-04-14T18:07:18.585Z,97.60
2019-04-14T18:10:13.477Z,97.30
2019-04-14T18:13:04.750Z,97.90
2019-04-14T18:15:40.434Z,97.80
2019-04-14T18:18:19.678Z,97.30
2019-04-14T18:20:52.451Z,97.50
2019-04-14T18:23:21.635Z,97.80
2019-04-14T18:25:50.806Z,98.30
2019-04-14T18:28:36.694Z,98.50
2019-04-14T18:31:17.892Z,98.40
2019-04-14T18:34:21.376Z,99.30
2019-04-14T18:36:55.611Z,99.70
2019-04-14T18:39:49.505Z,99.90
2019-04-14T18:42:39.606Z,99.90
2019-04-14T18:45:18.610Z,99.90
2019-04-14T18:47:55.704Z,99.90
2019-04-14T18:50:40.776Z,99.90
2019-04-14T18:53:14.773Z,99.90
2019-04-14T18:55:56.474Z,99.90
2019-04-14T18:58:51.242Z,99.90
2019-04-14T19:01:23.020Z,99.90
2019-04-14T19:03:52.263Z,99.90
2019-04-14T19:06:22.128Z,99.90
2019-04-14T19:08:52.013Z,99.90
2019-04-14T19:11:49.042Z,99.90
2019-04-14T19:14:22.465Z,99.90
2019-04-14T19:16:57.198Z,99.90
2019-04-14T19:19:26.458Z,99.90
2019-04-14T19:21:55.768Z,99.90
2019-04-14T19:24:25.407Z,99.90
2019-04-14T19:26:54.577Z,99.90
2019-04-14T19:29:24.102Z,99.90
2019-04-14T19:31:53.266Z,99.90
2019-04-14T19:34:22.443Z,99.90
2019-04-14T19:36:51.910Z,99.90
2019-04-14T19:39:21.157Z,99.90
2019-04-14T19:41:50.315Z,99.90
2019-04-14T19:44:19.837Z,99.90
2019-04-14T19:46:49.088Z,99.90
2019-04-14T19:49:18.939Z,99.90
2019-04-14T19:51:48.487Z,99.90
2019-04-14T19:54:17.997Z,99.90
2019-04-14T19:56:47.205Z,99.90
2019-04-14T19:59:16.415Z,99.90
2019-04-14T20:01:45.634Z,99.90
2019-04-14T20:04:14.787Z,99.90
2019-04-14T20:06:44.104Z,99.90
2019-04-14T20:09:13.721Z,99.90
2019-04-14T20:11:43.008Z,99.90
2019-04-14T20:14:12.606Z,99.90
2019-04-14T20:17:00.833Z,99.90
2019-04-14T20:19:38.022Z,99.90
2019-04-14T20:22:25.319Z,99.90
2019-04-14T20:24:58.847Z,99.90
2019-04-14T20:27:46.058Z,99.90
2019-04-14T20:30:23.844Z,99.90
2019-04-14T20:32:53.279Z,99.90
2019-04-14T20:35:22.439Z,99.90
2019-04-14T20:37:51.833Z,99.90
2019-04-14T20:40:21.473Z,99.90
2019-04-14T20:42:51.141Z,99.90
2019-04-14T20:45:20.383Z,99.90
2019-04-14T20:47:49.601Z,99.90
2019-04-14T20:50:18.901Z,99.90
2019-04-14T20:52:48.430Z,99.90
2019-04-14T20:55:18.011Z,99.90
2019-04-14T20:57:47.431Z,99.90
2019-04-14T21:00:16.692Z,99.90
2019-04-14T21:03:03.893Z,99.90
2019-04-14T21:05:56.127Z,99.90
2019-04-14T21:08:53.631Z,99.90
2019-04-14T21:11:29.049Z,99.90
2019-04-14T21:14:17.239Z,99.90
2019-04-14T21:17:04.698Z,99.90
2019-04-14T21:19:41.605Z,99.90
2019-04-14T21:22:27.415Z,99.90
2019-04-14T21:25:14.272Z,99.90
2019-04-14T21:27:53.869Z,99.90
2019-04-14T21:30:27.517Z,99.90
2019-04-14T21:33:09.129Z,99.90
2019-04-14T21:36:03.837Z,99.90
2019-04-14T21:39:07.205Z,99.90
2019-04-14T21:41:36.817Z,99.90
2019-04-14T21:44:06.699Z,99.90
2019-04-14T21:46:36.308Z,99.90
2019-04-14T21:49:05.792Z,99.90
2019-04-14T21:51:54.100Z,99.90
2019-04-14T21:54:23.363Z,99.90
2019-04-14T21:57:10.480Z,99.90
2019-04-14T21:59:55.684Z,99.90
2019-04-14T22:02:43.325Z,99.90
2019-04-14T22:05:24.907Z,99.90
2019-04-14T22:08:06.897Z,99.90
2019-04-14T22:10:49.393Z,99.90
2019-04-14T22:13:18.588Z,99.90
2019-04-14T22:15:48.161Z,99.90
2019-04-14T22:18:18.232Z,99.90
2019-04-14T22:20:47.784Z,99.90
2019-04-14T22:23:17.034Z,99.90
2019-04-14T22:25:46.197Z,99.90
2019-04-14T22:28:15.694Z,99.90
2019-04-14T22:30:44.931Z,99.90
2019-04-14T22:33:14.101Z,99.90
2019-04-14T22:35:43.339Z,99.90
2019-04-14T22:38:12.661Z,99.90
2019-04-14T22:40:41.913Z,99.90
2019-04-14T22:43:11.595Z,99.90
2019-04-14T22:45:40.841Z,99.90
2019-04-14T22:48:10.393Z,99.90
2019-04-14T22:50:39.877Z,99.90
2019-04-14T22:53:09.122Z,99.90
2019-04-14T22:55:38.290Z,99.90
2019-04-14T22:58:07.455Z,99.90
2019-04-14T23:00:43.989Z,99.90
2019-04-14T23:03:41.419Z,99.90
2019-04-14T23:06:18.182Z,99.90
2019-04-14T23:09:12.242Z,99.90
2019-04-14T23:12:03.396Z,99.90
2019-04-14T23:14:53.187Z,99.90
2019-04-14T23:17:42.947Z,99.90
2019-04-14T23:20:26.700Z,99.90
2019-04-14T23:23:12.559Z,99.90
2019-04-14T23:25:42.657Z,99.90
2019-04-14T23:28:11.809Z,99.90
2019-04-14T23:30:41.137Z,99.90
2019-04-14T23:33:10.319Z,99.90
2019-04-14T23:35:39.575Z,99.90
2019-04-14T23:38:08.714Z,99.90
2019-04-14T23:40:37.912Z,99.90
2019-04-14T23:43:07.427Z,99.90
2019-04-14T23:45:37.053Z,99.90
2019-04-14T23:48:06.285Z,99.90
2019-04-14T23:50:35.534Z,99.90
2019-04-14T23:53:04.970Z,99.90
2019-04-14T23:55:34.541Z,99.90
2019-04-14T23:58:04.595Z,99.90
